sensor_id;sensor_type;location;lat;lon;timestamp;temperature;humidity
2054;DHT22;1032;52.542;13.440;2022-09-25T00:01:07;14.90;99.90
2054;DHT22;1032;52.542;13.440;2022-09-25T00:03:33;13.90;99.90
2054;DHT22;1032;52.542;13.440;2022-09-25T00:06:02;14.40;99.90
2054;DHT22;1032;52.542;13.440;2022-09-25T00:08:29;14.40;99.90
2054;DHT22;1032;52.542;13.440;2022-09-25T00:10:56;14.70;99.90
2054;DHT22;1032;52.542;13.440;2022-09-25T00:13:25;13.90;99.90
2054;DHT22;1032;52.542;13.440;2022-09-25T00:15:53;14.00;99.90
2054;DHT22;1032;52.542;13.440;2022-09-25T00:18:21;13.90;99.90
2054;DHT22;1032;52.542;13.440;2022-09-25T00:21:09;14.40;99.90
2054;DHT22;1032;52.542;13.440;2022-09-25T00:23:37;13.80;99.90
2054;DHT22;1032;52.542;13.440;2022-09-25T00:26:04;14.30;99.90
2054;DHT22;1032;52.542;13.440;2022-09-25T00:28:33;14.40;99.90
2054;DHT22;1032;52.542;13.440;2022-09-25T00:31:00;14.20;99.90
2054;DHT22;1032;52.542;13.440;2022-09-25T00:33:27;14.30;99.90
2054;DHT22;1032;52.542;13.440;2022-09-25T00:35:54;14.20;99.90
2054;DHT22;1032;52.542;13.440;2022-09-25T00:38:20;14.50;99.90
2054;DHT22;1032;52.542;13.440;2022-09-25T00:40:47;14.30;99.90
2054;DHT22;1032;52.542;13.440;2022-09-25T00:43:14;14.40;99.90
2054;DHT22;1032;52.542;13.440;2022-09-25T00:45:43;14.50;99.90
2054;DHT22;1032;52.542;13.440;2022-09-25T00:48:11;14.20;99.90
2054;DHT22;1032;52.542;13.440;2022-09-25T00:50:45;14.10;99.90
2054;DHT22;1032;52.542;13.440;2022-09-25T00:53:18;14.30;99.90
2054;DHT22;1032;52.542;13.440;2022-09-25T00:55:46;14.30;99.90
2054;DHT22;1032;52.542;13.440;2022-09-25T00:58:14;14.60;99.90
2054;DHT22;1032;52.542;13.440;2022-09-25T01:00:44;14.00;99.90
2054;DHT22;1032;52.542;13.440;2022-09-25T01:03:10;14.50;99.90
2054;DHT22;1032;52.542;13.440;2022-09-25T01:05:40;14.00;99.90
2054;DHT22;1032;52.542;13.440;2022-09-25T01:08:11;14.20;99.90
2054;DHT22;1032;52.542;13.440;2022-09-25T01:10:39;14.40;99.90
2054;DHT22;1032;52.542;13.440;2022-09-25T01:13:06;14.10;99.90
2054;DHT22;1032;52.542;13.440;2022-09-25T01:15:39;14.50;99.90
2054;DHT22;1032;52.542;13.440;2022-09-25T01:18:15;14.30;99.90
2054;DHT22;1032;52.542;13.440;2022-09-25T01:21:02;14.60;99.90
2054;DHT22;1032;52.542;13.440;2022-09-25T01:23:50;14.40;99.90
2054;DHT22;1032;52.542;13.440;2022-09-25T01:26:34;14.30;99.90
2054;DHT22;1032;52.542;13.440;2022-09-25T01:29:10;14.60;99.90
2054;DHT22;1032;52.542;13.440;2022-09-25T01:31:41;14.70;99.90
2054;DHT22;1032;52.542;13.440;2022-09-25T01:34:14;14.30;99.90
2054;DHT22;1032;52.542;13.440;2022-09-25T01:36:47;14.50;99.90
2054;DHT22;1032;52.542;13.440;2022-09-25T01:39:19;14.40;99.90
2054;DHT22;1032;52.542;13.440;2022-09-25T01:41:50;14.10;99.90
2054;DHT22;1032;52.542;13.440;2022-09-25T01:44:24;14.80;99.90
2054;DHT22;1032;52.542;13.440;2022-09-25T01:46:54;14.50;99.90
2054;DHT22;1032;52.542;13.440;2022-09-25T01:49:25;14.30;99.90
2054;DHT22;1032;52.542;13.440;2022-09-25T01:51:54;14.20;99.90
2054;DHT22;1032;52.542;13.440;2022-09-25T01:54:26;14.50;99.90
2054;DHT22;1032;52.542;13.440;2022-09-25T01:56:57;14.90;99.90
2054;DHT22;1032;52.542;13.440;2022-09-25T01:59:32;14.40;99.90
2054;DHT22;1032;52.542;13.440;2022-09-25T02:02:02;14.20;99.90
2054;DHT22;1032;52.542;13.440;2022-09-25T02:04:33;14.50;99.90
2054;DHT22;1032;52.542;13.440;2022-09-25T02:07:03;14.50;99.90
2054;DHT22;1032;52.542;13.440;2022-09-25T02:09:33;14.50;99.90
2054;DHT22;1032;52.542;13.440;2022-09-25T02:12:09;14.10;99.90
2054;DHT22;1032;52.542;13.440;2022-09-25T02:14:39;14.20;99.90
2054;DHT22;1032;52.542;13.440;2022-09-25T02:17:11;14.40;99.90
2054;DHT22;1032;52.542;13.440;2022-09-25T02:19:59;14.50;99.90
2054;DHT22;1032;52.542;13.440;2022-09-25T02:22:45;14.70;99.90
2054;DHT22;1032;52.542;13.440;2022-09-25T02:25:17;14.80;99.90
2054;DHT22;1032;52.542;13.440;2022-09-25T02:27:45;14.30;99.90
2054;DHT22;1032;52.542;13.440;2022-09-25T02:30:13;14.80;99.90
2054;DHT22;1032;52.542;13.440;2022-09-25T02:32:41;14.40;99.90
2054;DHT22;1032;52.542;13.440;2022-09-25T02:35:08;15.00;99.90
2054;DHT22;1032;52.542;13.440;2022-09-25T02:37:36;14.40;99.90
2054;DHT22;1032;52.542;13.440;2022-09-25T02:40:03;14.70;99.90
2054;DHT22;1032;52.542;13.440;2022-09-25T02:42:36;14.70;99.90
2054;DHT22;1032;52.542;13.440;2022-09-25T02:45:15;14.20;99.90
2054;DHT22;1032;52.542;13.440;2022-09-25T02:47:56;14.50;99.90
2054;DHT22;1032;52.542;13.440;2022-09-25T02:50:34;14.40;99.90
2054;DHT22;1032;52.542;13.440;2022-09-25T02:53:07;14.60;99.90
2054;DHT22;1032;52.542;13.440;2022-09-25T02:55:39;14.80;99.90
2054;DHT22;1032;52.542;13.440;2022-09-25T02:58:10;14.30;99.90
2054;DHT22;1032;52.542;13.440;2022-09-25T03:00:43;14.60;99.90
2054;DHT22;1032;52.542;13.440;2022-09-25T03:03:12;14.40;99.90
2054;DHT22;1032;52.542;13.440;2022-09-25T03:05:40;14.20;99.90
2054;DHT22;1032;52.542;13.440;2022-09-25T03:08:08;14.60;99.90
2054;DHT22;1032;52.542;13.440;2022-09-25T03:10:53;14.30;99.90
2054;DHT22;1032;52.542;13.440;2022-09-25T03:13:21;14.80;99.90
2054;DHT22;1032;52.542;13.440;2022-09-25T03:15:56;14.50;99.90
2054;DHT22;1032;52.542;13.440;2022-09-25T03:18:23;14.50;99.90
2054;DHT22;1032;52.542;13.440;2022-09-25T03:20:51;14.50;99.90
2054;DHT22;1032;52.542;13.440;2022-09-25T03:23:17;14.30;99.90
2054;DHT22;1032;52.542;13.440;2022-09-25T03:25:44;14.40;99.90
2054;DHT22;1032;52.542;13.440;2022-09-25T03:28:13;14.60;99.90
2054;DHT22;1032;52.542;13.440;2022-09-25T03:30:40;14.10;99.90
2054;DHT22;1032;52.542;13.440;2022-09-25T03:33:09;14.70;99.90
2054;DHT22;1032;52.542;13.440;2022-09-25T03:35:36;14.90;99.90
2054;DHT22;1032;52.542;13.440;2022-09-25T03:38:03;14.80;99.90
2054;DHT22;1032;52.542;13.440;2022-09-25T03:40:30;14.50;99.90
2054;DHT22;1032;52.542;13.440;2022-09-25T03:42:57;13.90;99.90
2054;DHT22;1032;52.542;13.440;2022-09-25T03:45:23;14.60;99.90
2054;DHT22;1032;52.542;13.440;2022-09-25T03:47:50;14.90;99.90
2054;DHT22;1032;52.542;13.440;2022-09-25T03:50:18;14.20;99.90
2054;DHT22;1032;52.542;13.440;2022-09-25T03:52:44;14.00;99.90
2054;DHT22;1032;52.542;13.440;2022-09-25T03:55:11;14.40;99.90
2054;DHT22;1032;52.542;13.440;2022-09-25T03:57:38;14.50;99.90
2054;DHT22;1032;52.542;13.440;2022-09-25T04:00:06;14.40;99.90
2054;DHT22;1032;52.542;13.440;2022-09-25T04:02:38;14.30;99.90
2054;DHT22;1032;52.542;13.440;2022-09-25T04:05:05;14.80;99.90
2054;DHT22;1032;52.542;13.440;2022-09-25T04:07:35;14.40;99.90
2054;DHT22;1032;52.542;13.440;2022-09-25T04:10:02;14.20;99.90
2054;DHT22;1032;52.542;13.440;2022-09-25T04:12:28;14.30;99.90
2054;DHT22;1032;52.542;13.440;2022-09-25T04:14:55;14.30;99.90
2054;DHT22;1032;52.542;13.440;2022-09-25T04:17:22;13.90;99.90
2054;DHT22;1032;52.542;13.440;2022-09-25T04:19:48;14.50;99.90
2054;DHT22;1032;52.542;13.440;2022-09-25T04:22:17;14.40;99.90
2054;DHT22;1032;52.542;13.440;2022-09-25T04:24:45;14.30;99.90
2054;DHT22;1032;52.542;13.440;2022-09-25T04:27:15;14.30;99.90
2054;DHT22;1032;52.542;13.440;2022-09-25T04:29:43;14.30;99.90
2054;DHT22;1032;52.542;13.440;2022-09-25T04:32:10;14.40;99.90
2054;DHT22;1032;52.542;13.440;2022-09-25T04:34:54;14.30;99.90
2054;DHT22;1032;52.542;13.440;2022-09-25T04:37:21;14.20;99.90
2054;DHT22;1032;52.542;13.440;2022-09-25T04:39:48;14.00;99.90
2054;DHT22;1032;52.542;13.440;2022-09-25T04:42:15;14.50;99.90
2054;DHT22;1032;52.542;13.440;2022-09-25T04:44:42;14.50;99.90
2054;DHT22;1032;52.542;13.440;2022-09-25T04:47:08;14.50;99.90
2054;DHT22;1032;52.542;13.440;2022-09-25T04:49:35;14.60;99.90
2054;DHT22;1032;52.542;13.440;2022-09-25T04:52:03;14.20;99.90
2054;DHT22;1032;52.542;13.440;2022-09-25T04:54:30;14.20;99.90
2054;DHT22;1032;52.542;13.440;2022-09-25T04:56:58;14.40;99.90
2054;DHT22;1032;52.542;13.440;2022-09-25T04:59:27;14.00;99.90
2054;DHT22;1032;52.542;13.440;2022-09-25T05:01:54;14.30;99.90
2054;DHT22;1032;52.542;13.440;2022-09-25T05:04:20;14.40;99.90
2054;DHT22;1032;52.542;13.440;2022-09-25T05:06:47;14.30;99.90
2054;DHT22;1032;52.542;13.440;2022-09-25T05:09:13;14.00;99.90
2054;DHT22;1032;52.542;13.440;2022-09-25T05:11:40;14.30;99.90
2054;DHT22;1032;52.542;13.440;2022-09-25T05:14:08;14.40;99.90
2054;DHT22;1032;52.542;13.440;2022-09-25T05:16:34;14.20;99.90
2054;DHT22;1032;52.542;13.440;2022-09-25T05:19:01;14.30;99.90
2054;DHT22;1032;52.542;13.440;2022-09-25T05:21:27;14.70;99.90
2054;DHT22;1032;52.542;13.440;2022-09-25T05:23:54;14.70;99.90
2054;DHT22;1032;52.542;13.440;2022-09-25T05:26:21;14.00;99.90
2054;DHT22;1032;52.542;13.440;2022-09-25T05:28:48;13.90;99.90
2054;DHT22;1032;52.542;13.440;2022-09-25T05:31:17;14.30;99.90
2054;DHT22;1032;52.542;13.440;2022-09-25T05:33:43;14.10;99.90
2054;DHT22;1032;52.542;13.440;2022-09-25T05:36:10;14.20;99.90
2054;DHT22;1032;52.542;13.440;2022-09-25T05:38:38;13.70;99.90
2054;DHT22;1032;52.542;13.440;2022-09-25T05:41:07;14.40;99.90
2054;DHT22;1032;52.542;13.440;2022-09-25T05:43:37;14.10;99.90
2054;DHT22;1032;52.542;13.440;2022-09-25T05:46:05;14.10;99.90
2054;DHT22;1032;52.542;13.440;2022-09-25T05:48:33;14.10;99.90
2054;DHT22;1032;52.542;13.440;2022-09-25T05:50:59;14.30;99.90
2054;DHT22;1032;52.542;13.440;2022-09-25T05:53:26;14.10;99.90
2054;DHT22;1032;52.542;13.440;2022-09-25T05:55:56;13.90;99.90
2054;DHT22;1032;52.542;13.440;2022-09-25T05:58:23;14.00;99.90
2054;DHT22;1032;52.542;13.440;2022-09-25T06:00:50;14.00;99.90
2054;DHT22;1032;52.542;13.440;2022-09-25T06:03:17;14.00;99.90
2054;DHT22;1032;52.542;13.440;2022-09-25T06:05:46;13.50;99.90
2054;DHT22;1032;52.542;13.440;2022-09-25T06:08:14;14.00;99.90
2054;DHT22;1032;52.542;13.440;2022-09-25T06:10:41;13.90;99.90
2054;DHT22;1032;52.542;13.440;2022-09-25T06:13:08;14.20;99.90
2054;DHT22;1032;52.542;13.440;2022-09-25T06:15:36;14.00;99.90
2054;DHT22;1032;52.542;13.440;2022-09-25T06:18:03;14.30;99.90
2054;DHT22;1032;52.542;13.440;2022-09-25T06:20:30;14.10;99.90
2054;DHT22;1032;52.542;13.440;2022-09-25T06:22:58;14.20;99.90
2054;DHT22;1032;52.542;13.440;2022-09-25T06:25:28;14.20;99.90
2054;DHT22;1032;52.542;13.440;2022-09-25T06:27:58;14.20;99.90
2054;DHT22;1032;52.542;13.440;2022-09-25T06:30:26;14.20;99.90
2054;DHT22;1032;52.542;13.440;2022-09-25T06:32:59;14.50;99.90
2054;DHT22;1032;52.542;13.440;2022-09-25T06:35:26;14.80;99.90
2054;DHT22;1032;52.542;13.440;2022-09-25T06:37:56;14.90;99.90
2054;DHT22;1032;52.542;13.440;2022-09-25T06:40:24;14.80;99.90
2054;DHT22;1032;52.542;13.440;2022-09-25T06:42:54;15.00;99.90
2054;DHT22;1032;52.542;13.440;2022-09-25T06:45:21;14.80;99.90
2054;DHT22;1032;52.542;13.440;2022-09-25T06:47:47;15.20;99.90
2054;DHT22;1032;52.542;13.440;2022-09-25T06:50:14;15.10;99.90
2054;DHT22;1032;52.542;13.440;2022-09-25T06:52:41;15.20;99.90
2054;DHT22;1032;52.542;13.440;2022-09-25T06:55:09;15.10;99.90
2054;DHT22;1032;52.542;13.440;2022-09-25T06:57:37;15.20;99.90
2054;DHT22;1032;52.542;13.440;2022-09-25T07:00:04;15.70;99.90
2054;DHT22;1032;52.542;13.440;2022-09-25T07:02:31;15.30;99.90
2054;DHT22;1032;52.542;13.440;2022-09-25T07:05:15;15.30;99.90
2054;DHT22;1032;52.542;13.440;2022-09-25T07:07:43;15.50;99.90
2054;DHT22;1032;52.542;13.440;2022-09-25T07:10:10;15.50;99.90
2054;DHT22;1032;52.542;13.440;2022-09-25T07:12:38;15.40;99.90
2054;DHT22;1032;52.542;13.440;2022-09-25T07:15:06;15.50;99.90
2054;DHT22;1032;52.542;13.440;2022-09-25T07:17:33;15.50;99.90
2054;DHT22;1032;52.542;13.440;2022-09-25T07:20:00;15.60;99.90
2054;DHT22;1032;52.542;13.440;2022-09-25T07:22:28;15.60;99.90
2054;DHT22;1032;52.542;13.440;2022-09-25T07:24:54;15.70;99.90
2054;DHT22;1032;52.542;13.440;2022-09-25T07:27:21;15.70;99.90
2054;DHT22;1032;52.542;13.440;2022-09-25T07:32:17;16.00;99.90
2054;DHT22;1032;52.542;13.440;2022-09-25T07:34:45;15.80;99.90
2054;DHT22;1032;52.542;13.440;2022-09-25T07:37:14;15.60;99.90
2054;DHT22;1032;52.542;13.440;2022-09-25T07:39:41;16.30;99.90
2054;DHT22;1032;52.542;13.440;2022-09-25T07:42:07;15.80;99.90
2054;DHT22;1032;52.542;13.440;2022-09-25T07:44:34;16.20;99.90
2054;DHT22;1032;52.542;13.440;2022-09-25T07:47:02;16.10;99.90
2054;DHT22;1032;52.542;13.440;2022-09-25T07:49:29;16.30;99.90
2054;DHT22;1032;52.542;13.440;2022-09-25T07:51:56;16.30;99.90
2054;DHT22;1032;52.542;13.440;2022-09-25T07:54:23;16.50;99.90
2054;DHT22;1032;52.542;13.440;2022-09-25T07:56:50;16.50;99.90
2054;DHT22;1032;52.542;13.440;2022-09-25T07:59:17;16.60;99.90
2054;DHT22;1032;52.542;13.440;2022-09-25T08:01:43;16.70;99.90
2054;DHT22;1032;52.542;13.440;2022-09-25T08:04:12;16.80;99.90
2054;DHT22;1032;52.542;13.440;2022-09-25T08:06:38;16.70;99.90
2054;DHT22;1032;52.542;13.440;2022-09-25T08:09:05;16.70;99.90
2054;DHT22;1032;52.542;13.440;2022-09-25T08:11:32;16.90;99.90
2054;DHT22;1032;52.542;13.440;2022-09-25T08:13:59;16.80;99.90
2054;DHT22;1032;52.542;13.440;2022-09-25T08:16:26;16.90;99.90
2054;DHT22;1032;52.542;13.440;2022-09-25T08:18:52;16.60;99.70
2054;DHT22;1032;52.542;13.440;2022-09-25T08:21:20;16.90;99.70
2054;DHT22;1032;52.542;13.440;2022-09-25T08:23:48;16.90;99.60
2054;DHT22;1032;52.542;13.440;2022-09-25T08:26:15;17.00;99.60
2054;DHT22;1032;52.542;13.440;2022-09-25T08:28:42;17.10;99.60
2054;DHT22;1032;52.542;13.440;2022-09-25T08:31:09;17.10;99.50
2054;DHT22;1032;52.542;13.440;2022-09-25T08:33:37;17.20;99.50
2054;DHT22;1032;52.542;13.440;2022-09-25T08:36:05;17.10;99.30
2054;DHT22;1032;52.542;13.440;2022-09-25T08:38:33;17.40;99.30
2054;DHT22;1032;52.542;13.440;2022-09-25T08:41:02;17.40;99.10
2054;DHT22;1032;52.542;13.440;2022-09-25T08:43:32;17.50;98.90
2054;DHT22;1032;52.542;13.440;2022-09-25T08:46:04;17.60;98.70
2054;DHT22;1032;52.542;13.440;2022-09-25T08:48:54;18.20;98.90
2054;DHT22;1032;52.542;13.440;2022-09-25T08:51:33;17.70;98.60
2054;DHT22;1032;52.542;13.440;2022-09-25T08:54:03;17.70;98.50
2054;DHT22;1032;52.542;13.440;2022-09-25T08:56:32;17.60;98.40
2054;DHT22;1032;52.542;13.440;2022-09-25T08:59:02;17.80;98.40
2054;DHT22;1032;52.542;13.440;2022-09-25T09:01:41;17.60;98.20
2054;DHT22;1032;52.542;13.440;2022-09-25T09:04:14;17.90;98.20
2054;DHT22;1032;52.542;13.440;2022-09-25T09:06:45;17.90;98.10
2054;DHT22;1032;52.542;13.440;2022-09-25T09:09:18;17.90;98.10
2054;DHT22;1032;52.542;13.440;2022-09-25T09:11:49;18.00;98.00
2054;DHT22;1032;52.542;13.440;2022-09-25T09:14:19;18.00;97.80
2054;DHT22;1032;52.542;13.440;2022-09-25T09:16:51;18.10;97.80
2054;DHT22;1032;52.542;13.440;2022-09-25T09:19:20;18.10;97.70
2054;DHT22;1032;52.542;13.440;2022-09-25T09:21:53;18.00;97.60
2054;DHT22;1032;52.542;13.440;2022-09-25T09:24:28;18.10;97.70
2054;DHT22;1032;52.542;13.440;2022-09-25T09:27:11;17.90;97.70
2054;DHT22;1032;52.542;13.440;2022-09-25T09:30:05;17.70;97.50
2054;DHT22;1032;52.542;13.440;2022-09-25T09:35:31;17.80;97.90
2054;DHT22;1032;52.542;13.440;2022-09-25T09:38:08;17.90;98.00
2054;DHT22;1032;52.542;13.440;2022-09-25T09:40:51;17.50;97.80
2054;DHT22;1032;52.542;13.440;2022-09-25T09:43:39;17.80;97.90
2054;DHT22;1032;52.542;13.440;2022-09-25T09:46:14;17.60;97.70
2054;DHT22;1032;52.542;13.440;2022-09-25T09:48:49;17.80;97.80
2054;DHT22;1032;52.542;13.440;2022-09-25T09:51:21;18.00;98.00
2054;DHT22;1032;52.542;13.440;2022-09-25T09:53:51;17.60;97.90
2054;DHT22;1032;52.542;13.440;2022-09-25T09:56:24;17.60;98.00
2054;DHT22;1032;52.542;13.440;2022-09-25T09:58:54;17.60;97.90
2054;DHT22;1032;52.542;13.440;2022-09-25T10:01:23;18.10;98.30
2054;DHT22;1032;52.542;13.440;2022-09-25T10:04:02;17.60;98.10
2054;DHT22;1032;52.542;13.440;2022-09-25T10:06:32;17.50;98.30
2054;DHT22;1032;52.542;13.440;2022-09-25T10:09:00;17.10;98.30
2054;DHT22;1032;52.542;13.440;2022-09-25T10:11:30;17.50;98.50
2054;DHT22;1032;52.542;13.440;2022-09-25T10:13:57;17.40;98.40
2054;DHT22;1032;52.542;13.440;2022-09-25T10:16:25;17.40;98.50
2054;DHT22;1032;52.542;13.440;2022-09-25T10:18:55;17.20;98.40
2054;DHT22;1032;52.542;13.440;2022-09-25T10:23:56;17.40;98.60
2054;DHT22;1032;52.542;13.440;2022-09-25T10:26:26;17.70;98.70
2054;DHT22;1032;52.542;13.440;2022-09-25T10:28:55;17.50;98.60
2054;DHT22;1032;52.542;13.440;2022-09-25T10:31:24;17.20;98.30
2054;DHT22;1032;52.542;13.440;2022-09-25T10:34:00;17.60;98.50
2054;DHT22;1032;52.542;13.440;2022-09-25T10:36:31;17.90;98.70
2054;DHT22;1032;52.542;13.440;2022-09-25T10:39:00;17.60;98.50
2054;DHT22;1032;52.542;13.440;2022-09-25T10:41:27;18.00;99.10
2054;DHT22;1032;52.542;13.440;2022-09-25T10:43:59;17.60;98.60
2054;DHT22;1032;52.542;13.440;2022-09-25T10:46:28;17.50;98.50
2054;DHT22;1032;52.542;13.440;2022-09-25T10:49:16;17.70;98.50
2054;DHT22;1032;52.542;13.440;2022-09-25T10:52:02;17.70;98.50
2054;DHT22;1032;52.542;13.440;2022-09-25T10:54:30;17.60;98.40
2054;DHT22;1032;52.542;13.440;2022-09-25T10:56:57;17.90;98.40
2054;DHT22;1032;52.542;13.440;2022-09-25T10:59:26;18.10;98.30
2054;DHT22;1032;52.542;13.440;2022-09-25T11:01:54;17.80;97.90
2054;DHT22;1032;52.542;13.440;2022-09-25T11:04:23;17.80;97.80
2054;DHT22;1032;52.542;13.440;2022-09-25T11:06:55;18.30;98.00
2054;DHT22;1032;52.542;13.440;2022-09-25T11:09:24;18.00;97.80
2054;DHT22;1032;52.542;13.440;2022-09-25T11:11:53;17.50;97.30
2054;DHT22;1032;52.542;13.440;2022-09-25T11:14:32;17.60;97.20
2054;DHT22;1032;52.542;13.440;2022-09-25T11:17:00;17.90;97.30
2054;DHT22;1032;52.542;13.440;2022-09-25T11:19:31;18.10;97.30
2054;DHT22;1032;52.542;13.440;2022-09-25T11:22:13;18.50;97.20
2054;DHT22;1032;52.542;13.440;2022-09-25T11:24:55;18.40;96.90
2054;DHT22;1032;52.542;13.440;2022-09-25T11:27:27;18.40;96.50
2054;DHT22;1032;52.542;13.440;2022-09-25T11:30:03;18.70;96.70
2054;DHT22;1032;52.542;13.440;2022-09-25T11:32:36;19.00;96.40
2054;DHT22;1032;52.542;13.440;2022-09-25T11:35:29;19.10;96.00
2054;DHT22;1032;52.542;13.440;2022-09-25T11:38:09;19.20;96.00
2054;DHT22;1032;52.542;13.440;2022-09-25T11:40:42;19.50;95.90
2054;DHT22;1032;52.542;13.440;2022-09-25T11:43:37;19.50;95.70
2054;DHT22;1032;52.542;13.440;2022-09-25T11:46:18;19.50;95.20
2054;DHT22;1032;52.542;13.440;2022-09-25T11:48:53;19.60;95.10
2054;DHT22;1032;52.542;13.440;2022-09-25T11:51:28;19.80;95.00
2054;DHT22;1032;52.542;13.440;2022-09-25T11:54:06;19.50;94.50
2054;DHT22;1032;52.542;13.440;2022-09-25T11:56:42;19.70;94.70
2054;DHT22;1032;52.542;13.440;2022-09-25T11:59:21;19.40;94.70
2054;DHT22;1032;52.542;13.440;2022-09-25T12:01:57;19.70;94.80
2054;DHT22;1032;52.542;13.440;2022-09-25T12:04:49;19.80;94.70
2054;DHT22;1032;52.542;13.440;2022-09-25T12:07:39;19.60;94.60
2054;DHT22;1032;52.542;13.440;2022-09-25T12:10:31;19.30;94.40
2054;DHT22;1032;52.542;13.440;2022-09-25T12:13:03;19.40;94.20
2054;DHT22;1032;52.542;13.440;2022-09-25T12:15:44;19.60;94.30
2054;DHT22;1032;52.542;13.440;2022-09-25T12:18:19;19.60;93.80
2054;DHT22;1032;52.542;13.440;2022-09-25T12:20:51;19.70;93.80
2054;DHT22;1032;52.542;13.440;2022-09-25T12:23:23;19.60;93.50
2054;DHT22;1032;52.542;13.440;2022-09-25T12:26:01;19.60;93.30
2054;DHT22;1032;52.542;13.440;2022-09-25T12:28:36;19.50;93.10
2054;DHT22;1032;52.542;13.440;2022-09-25T12:31:12;19.30;93.40
2054;DHT22;1032;52.542;13.440;2022-09-25T12:33:47;19.60;93.60
2054;DHT22;1032;52.542;13.440;2022-09-25T12:36:22;19.60;93.80
2054;DHT22;1032;52.542;13.440;2022-09-25T12:38:53;19.40;93.80
2054;DHT22;1032;52.542;13.440;2022-09-25T12:41:27;19.60;93.80
2054;DHT22;1032;52.542;13.440;2022-09-25T12:43:59;19.90;93.80
2054;DHT22;1032;52.542;13.440;2022-09-25T12:46:30;19.80;93.50
2054;DHT22;1032;52.542;13.440;2022-09-25T12:49:04;19.80;93.20
2054;DHT22;1032;52.542;13.440;2022-09-25T12:51:38;20.10;92.90
2054;DHT22;1032;52.542;13.440;2022-09-25T12:54:13;20.10;92.60
2054;DHT22;1032;52.542;13.440;2022-09-25T12:56:45;19.80;92.70
2054;DHT22;1032;52.542;13.440;2022-09-25T12:59:19;19.70;92.60
2054;DHT22;1032;52.542;13.440;2022-09-25T13:02:01;20.10;92.70
2054;DHT22;1032;52.542;13.440;2022-09-25T13:04:41;19.90;92.30
2054;DHT22;1032;52.542;13.440;2022-09-25T13:07:14;19.90;92.20
2054;DHT22;1032;52.542;13.440;2022-09-25T13:09:43;19.90;92.10
2054;DHT22;1032;52.542;13.440;2022-09-25T13:12:21;20.10;92.20
2054;DHT22;1032;52.542;13.440;2022-09-25T13:14:53;19.50;91.70
2054;DHT22;1032;52.542;13.440;2022-09-25T13:17:21;20.20;92.00
2054;DHT22;1032;52.542;13.440;2022-09-25T13:19:49;20.10;91.70
2054;DHT22;1032;52.542;13.440;2022-09-25T13:22:18;19.90;91.60
2054;DHT22;1032;52.542;13.440;2022-09-25T13:24:49;19.80;91.40
2054;DHT22;1032;52.542;13.440;2022-09-25T13:27:18;20.10;91.60
2054;DHT22;1032;52.542;13.440;2022-09-25T13:29:52;19.90;91.50
2054;DHT22;1032;52.542;13.440;2022-09-25T13:32:22;20.20;91.80
2054;DHT22;1032;52.542;13.440;2022-09-25T13:34:54;19.90;91.70
2054;DHT22;1032;52.542;13.440;2022-09-25T13:37:25;19.70;91.70
2054;DHT22;1032;52.542;13.440;2022-09-25T13:39:53;19.90;91.80
2054;DHT22;1032;52.542;13.440;2022-09-25T13:42:38;20.00;91.80
2054;DHT22;1032;52.542;13.440;2022-09-25T13:45:29;20.40;92.30
2054;DHT22;1032;52.542;13.440;2022-09-25T13:47:59;20.10;91.40
2054;DHT22;1032;52.542;13.440;2022-09-25T13:50:33;20.20;91.50
2054;DHT22;1032;52.542;13.440;2022-09-25T13:56:05;20.10;91.50
2054;DHT22;1032;52.542;13.440;2022-09-25T13:58:59;20.10;91.70
2054;DHT22;1032;52.542;13.440;2022-09-25T14:01:33;20.20;91.80
2054;DHT22;1032;52.542;13.440;2022-09-25T14:04:04;20.00;91.80
2054;DHT22;1032;52.542;13.440;2022-09-25T14:06:35;20.00;91.90
2054;DHT22;1032;52.542;13.440;2022-09-25T14:09:07;20.00;91.80
2054;DHT22;1032;52.542;13.440;2022-09-25T14:11:35;19.90;91.80
2054;DHT22;1032;52.542;13.440;2022-09-25T14:14:06;19.60;91.90
2054;DHT22;1032;52.542;13.440;2022-09-25T14:16:42;20.00;92.30
2054;DHT22;1032;52.542;13.440;2022-09-25T14:19:16;20.00;92.40
2054;DHT22;1032;52.542;13.440;2022-09-25T14:21:45;19.90;92.30
2054;DHT22;1032;52.542;13.440;2022-09-25T14:24:17;19.90;92.40
2054;DHT22;1032;52.542;13.440;2022-09-25T14:26:46;19.90;92.30
2054;DHT22;1032;52.542;13.440;2022-09-25T14:29:15;19.80;92.30
2054;DHT22;1032;52.542;13.440;2022-09-25T14:31:47;19.90;92.40
2054;DHT22;1032;52.542;13.440;2022-09-25T14:34:38;19.90;92.40
2054;DHT22;1032;52.542;13.440;2022-09-25T14:37:32;20.00;92.50
2054;DHT22;1032;52.542;13.440;2022-09-25T14:40:04;20.10;93.10
2054;DHT22;1032;52.542;13.440;2022-09-25T14:42:46;20.10;92.90
2054;DHT22;1032;52.542;13.440;2022-09-25T14:45:32;20.10;92.80
2054;DHT22;1032;52.542;13.440;2022-09-25T14:48:07;20.10;92.80
2054;DHT22;1032;52.542;13.440;2022-09-25T14:50:37;20.00;92.90
2054;DHT22;1032;52.542;13.440;2022-09-25T14:53:11;20.10;92.90
2054;DHT22;1032;52.542;13.440;2022-09-25T14:55:42;20.10;92.90
2054;DHT22;1032;52.542;13.440;2022-09-25T14:58:14;20.00;92.90
2054;DHT22;1032;52.542;13.440;2022-09-25T15:00:44;20.00;93.10
2054;DHT22;1032;52.542;13.440;2022-09-25T15:03:13;20.20;93.40
2054;DHT22;1032;52.542;13.440;2022-09-25T15:05:45;20.10;93.50
2054;DHT22;1032;52.542;13.440;2022-09-25T15:08:19;19.80;93.50
2054;DHT22;1032;52.542;13.440;2022-09-25T15:10:47;20.00;93.90
2054;DHT22;1032;52.542;13.440;2022-09-25T15:13:15;19.40;93.50
2054;DHT22;1032;52.542;13.440;2022-09-25T15:15:44;19.60;93.30
2054;DHT22;1032;52.542;13.440;2022-09-25T15:18:32;19.50;93.10
2054;DHT22;1032;52.542;13.440;2022-09-25T15:21:00;19.20;92.90
2054;DHT22;1032;52.542;13.440;2022-09-25T15:23:28;19.50;93.20
2054;DHT22;1032;52.542;13.440;2022-09-25T15:25:56;19.30;93.10
2054;DHT22;1032;52.542;13.440;2022-09-25T15:28:25;19.50;93.30
2054;DHT22;1032;52.542;13.440;2022-09-25T15:30:54;19.10;93.30
2054;DHT22;1032;52.542;13.440;2022-09-25T15:33:24;19.20;93.50
2054;DHT22;1032;52.542;13.440;2022-09-25T15:35:55;18.90;93.70
2054;DHT22;1032;52.542;13.440;2022-09-25T15:38:29;19.20;94.00
2054;DHT22;1032;52.542;13.440;2022-09-25T15:40:56;19.10;94.10
2054;DHT22;1032;52.542;13.440;2022-09-25T15:43:23;18.60;94.00
2054;DHT22;1032;52.542;13.440;2022-09-25T15:45:54;19.10;94.40
2054;DHT22;1032;52.542;13.440;2022-09-25T15:48:25;19.10;94.60
2054;DHT22;1032;52.542;13.440;2022-09-25T15:50:54;18.90;94.60
2054;DHT22;1032;52.542;13.440;2022-09-25T15:53:25;19.10;94.80
2054;DHT22;1032;52.542;13.440;2022-09-25T15:56:11;19.10;95.00
2054;DHT22;1032;52.542;13.440;2022-09-25T15:58:43;19.10;95.20
2054;DHT22;1032;52.542;13.440;2022-09-25T16:01:12;19.00;95.40
2054;DHT22;1032;52.542;13.440;2022-09-25T16:04:15;19.00;95.60
2054;DHT22;1032;52.542;13.440;2022-09-25T16:07:22;19.00;96.00
2054;DHT22;1032;52.542;13.440;2022-09-25T16:09:50;19.00;96.40
2054;DHT22;1032;52.542;13.440;2022-09-25T16:12:21;18.80;96.40
2054;DHT22;1032;52.542;13.440;2022-09-25T16:14:50;18.80;96.60
2054;DHT22;1032;52.542;13.440;2022-09-25T16:17:22;18.90;96.70
2054;DHT22;1032;52.542;13.440;2022-09-25T16:19:58;18.80;96.80
2054;DHT22;1032;52.542;13.440;2022-09-25T16:22:25;18.80;96.80